createdAt,value
2022-08-28T00:01:09.686Z,100.00
2022-08-28T00:02:09.682Z,100.00
2022-08-28T00:03:09.775Z,100.00
2022-08-28T00:04:09.675Z,100.00
2022-08-28T00:06:09.693Z,100.00
2022-08-28T00:07:09.700Z,100.00
2022-08-28T00:08:09.687Z,100.00
2022-08-28T00:09:09.685Z,100.00
2022-08-28T00:11:09.703Z,100.00
2022-08-28T00:12:09.732Z,100.00
2022-08-28T00:13:09.700Z,100.00
2022-08-28T00:14:09.718Z,100.00
2022-08-28T00:16:09.743Z,100.00
2022-08-28T00:17:09.703Z,100.00
2022-08-28T00:18:09.764Z,100.00
2022-08-28T00:19:09.703Z,100.00
2022-08-28T00:21:09.709Z,100.00
2022-08-28T00:22:09.704Z,100.00
2022-08-28T00:23:09.699Z,100.00
2022-08-28T00:24:09.712Z,100.00
2022-08-28T00:26:09.731Z,100.00
2022-08-28T00:27:09.704Z,100.00
2022-08-28T00:28:09.942Z,100.00
2022-08-28T00:29:09.718Z,100.00
2022-08-28T00:31:09.805Z,100.00
2022-08-28T00:32:09.698Z,100.00
2022-08-28T00:33:09.722Z,100.00
2022-08-28T00:34:09.736Z,100.00
2022-08-28T00:36:09.722Z,100.00
2022-08-28T00:37:09.737Z,100.00
2022-08-28T00:38:09.884Z,100.00
2022-08-28T00:39:09.737Z,100.00
2022-08-28T00:41:09.724Z,100.00
2022-08-28T00:42:09.714Z,100.00
2022-08-28T00:43:09.727Z,100.00
2022-08-28T00:44:09.764Z,100.00
2022-08-28T00:46:09.771Z,100.00
2022-08-28T00:47:09.723Z,100.00
2022-08-28T00:48:09.752Z,100.00
2022-08-28T00:49:09.732Z,100.00
2022-08-28T00:51:09.750Z,100.00
2022-08-28T00:52:12.055Z,100.00
2022-08-28T00:53:09.736Z,100.00
2022-08-28T00:54:09.740Z,100.00
2022-08-28T00:56:12.934Z,100.00
2022-08-28T00:57:09.745Z,100.00
2022-08-28T00:58:09.762Z,100.00
2022-08-28T00:59:09.741Z,100.00
2022-08-28T01:01:09.756Z,100.00
2022-08-28T01:02:09.780Z,100.00
2022-08-28T01:03:09.786Z,100.00
2022-08-28T01:04:09.744Z,100.00
2022-08-28T01:06:09.781Z,100.00
2022-08-28T01:07:09.760Z,100.00
2022-08-28T01:08:09.907Z,100.00
2022-08-28T01:09:09.758Z,100.00
2022-08-28T01:11:09.779Z,100.00
2022-08-28T01:12:09.771Z,100.00
2022-08-28T01:13:09.764Z,100.00
2022-08-28T01:14:09.763Z,100.00
2022-08-28T01:16:09.900Z,100.00
2022-08-28T01:17:09.774Z,100.00
2022-08-28T01:18:09.874Z,100.00
2022-08-28T01:19:09.791Z,100.00
2022-08-28T01:21:09.798Z,100.00
2022-08-28T01:22:09.802Z,100.00
2022-08-28T01:23:09.794Z,100.00
2022-08-28T01:24:09.793Z,100.00
2022-08-28T01:26:10.951Z,100.00
2022-08-28T01:27:09.797Z,100.00
2022-08-28T01:28:09.781Z,100.00
2022-08-28T01:29:09.808Z,100.00
2022-08-28T01:31:09.856Z,100.00
2022-08-28T01:32:09.797Z,100.00
2022-08-28T01:33:09.804Z,100.00
2022-08-28T01:34:09.806Z,100.00
2022-08-28T01:36:09.816Z,100.00
2022-08-28T01:37:09.798Z,100.00
2022-08-28T01:38:09.832Z,100.00
2022-08-28T01:39:09.785Z,100.00
2022-08-28T01:41:09.794Z,100.00
2022-08-28T01:42:09.826Z,100.00
2022-08-28T01:43:36.764Z,100.00
2022-08-28T01:44:36.781Z,100.00
2022-08-28T01:45:36.803Z,100.00
2022-08-28T01:46:36.860Z,100.00
2022-08-28T01:47:36.798Z,100.00
2022-08-28T01:48:36.811Z,100.00
2022-08-28T01:49:36.770Z,100.00
2022-08-28T01:50:36.789Z,100.00
2022-08-28T01:51:38.222Z,100.00
2022-08-28T01:52:36.780Z,100.00
2022-08-28T01:53:36.770Z,100.00
2022-08-28T01:54:36.779Z,100.00
2022-08-28T01:55:36.786Z,100.00
2022-08-28T01:56:36.794Z,100.00
2022-08-28T01:57:36.782Z,100.00
2022-08-28T01:58:38.424Z,100.00
2022-08-28T01:59:36.783Z,100.00
2022-08-28T02:00:36.798Z,100.00
2022-08-28T02:01:36.847Z,100.00
2022-08-28T02:02:36.806Z,100.00
2022-08-28T02:03:36.827Z,100.00
2022-08-28T02:04:36.830Z,100.00
2022-08-28T02:05:36.815Z,100.00
2022-08-28T02:06:36.786Z,100.00
2022-08-28T02:07:36.766Z,100.00
2022-08-28T02:08:36.795Z,100.00
2022-08-28T02:09:36.815Z,100.00
2022-08-28T02:10:36.830Z,100.00
2022-08-28T02:11:36.800Z,100.00
2022-08-28T02:12:36.793Z,100.00
2022-08-28T02:13:36.793Z,100.00
2022-08-28T02:14:36.788Z,100.00
2022-08-28T02:15:36.849Z,100.00
2022-08-28T02:16:36.782Z,100.00
2022-08-28T02:17:36.779Z,100.00
2022-08-28T02:18:36.809Z,100.00
2022-08-28T02:19:36.803Z,100.00
2022-08-28T02:20:36.833Z,100.00
2022-08-28T02:21:36.962Z,100.00
2022-08-28T02:22:36.961Z,100.00
2022-08-28T02:23:36.953Z,100.00
2022-08-28T02:24:37.182Z,100.00
2022-08-28T02:25:37.021Z,100.00
2022-08-28T02:26:36.998Z,100.00
2022-08-28T02:27:37.024Z,100.00
2022-08-28T02:28:37.025Z,100.00
2022-08-28T02:29:37.040Z,100.00
2022-08-28T02:30:37.120Z,100.00
2022-08-28T02:31:37.075Z,100.00
2022-08-28T02:32:37.079Z,100.00
2022-08-28T02:33:37.089Z,100.00
2022-08-28T02:34:37.106Z,100.00
2022-08-28T02:35:37.118Z,100.00
2022-08-28T02:36:37.131Z,100.00
2022-08-28T02:37:37.132Z,100.00
2022-08-28T02:38:37.149Z,100.00
2022-08-28T02:39:37.146Z,100.00
2022-08-28T02:40:37.296Z,100.00
2022-08-28T02:41:37.199Z,100.00
2022-08-28T02:42:37.210Z,100.00
2022-08-28T02:43:37.204Z,100.00
2022-08-28T02:44:37.220Z,100.00
2022-08-28T02:45:37.241Z,100.00
2022-08-28T02:46:37.277Z,100.00
2022-08-28T02:47:37.276Z,100.00
2022-08-28T02:48:37.261Z,100.00
2022-08-28T02:49:37.293Z,100.00
2022-08-28T02:50:37.324Z,100.00
2022-08-28T02:51:37.321Z,100.00
2022-08-28T02:52:37.335Z,100.00
2022-08-28T02:53:37.333Z,100.00
2022-08-28T02:54:37.342Z,100.00
2022-08-28T02:55:37.363Z,100.00
2022-08-28T02:56:37.376Z,100.00
2022-08-28T02:57:37.407Z,100.00
2022-08-28T02:58:37.395Z,100.00
2022-08-28T02:59:37.386Z,100.00
2022-08-28T03:00:37.433Z,100.00
2022-08-28T03:01:37.470Z,100.00
2022-08-28T03:02:37.502Z,100.00
2022-08-28T03:03:37.451Z,100.00
2022-08-28T03:04:37.478Z,100.00
2022-08-28T03:05:37.460Z,100.00
2022-08-28T03:06:37.464Z,100.00
2022-08-28T03:07:37.476Z,100.00
2022-08-28T03:08:37.481Z,100.00
2022-08-28T03:09:37.466Z,100.00
2022-08-28T03:10:37.468Z,100.00
2022-08-28T03:11:37.456Z,100.00
2022-08-28T03:12:37.451Z,100.00
2022-08-28T03:13:37.483Z,100.00
2022-08-28T03:14:37.450Z,100.00
2022-08-28T03:15:37.493Z,100.00
2022-08-28T03:16:37.520Z,100.00
2022-08-28T03:17:37.468Z,100.00
2022-08-28T03:18:37.482Z,100.00
2022-08-28T03:19:37.477Z,100.00
2022-08-28T03:20:37.505Z,100.00
2022-08-28T03:21:37.479Z,100.00
2022-08-28T03:22:37.483Z,100.00
2022-08-28T03:23:37.470Z,100.00
2022-08-28T03:24:37.492Z,100.00
2022-08-28T03:25:37.489Z,100.00
2022-08-28T03:26:37.466Z,100.00
2022-08-28T03:27:37.503Z,100.00
2022-08-28T03:28:37.483Z,100.00
2022-08-28T03:29:37.496Z,100.00
2022-08-28T03:30:37.591Z,100.00
2022-08-28T03:31:37.482Z,100.00
2022-08-28T03:32:37.502Z,100.00
2022-08-28T03:33:37.516Z,100.00
2022-08-28T03:34:37.529Z,100.00
2022-08-28T03:35:37.543Z,100.00
2022-08-28T03:36:37.530Z,100.00
2022-08-28T03:37:37.531Z,100.00
2022-08-28T03:38:37.540Z,100.00
2022-08-28T03:39:37.543Z,100.00
2022-08-28T03:40:37.586Z,100.00
2022-08-28T03:41:37.533Z,100.00
2022-08-28T03:42:37.505Z,100.00
2022-08-28T03:43:37.551Z,100.00
2022-08-28T03:44:37.539Z,100.00
2022-08-28T03:45:37.611Z,100.00
2022-08-28T03:46:37.529Z,100.00
2022-08-28T03:47:37.553Z,100.00
2022-08-28T03:48:37.533Z,100.00
2022-08-28T03:49:37.561Z,100.00
2022-08-28T03:50:37.562Z,100.00
2022-08-28T03:51:37.534Z,100.00
2022-08-28T03:52:37.542Z,100.00
2022-08-28T03:53:37.526Z,100.00
2022-08-28T03:54:37.549Z,100.00
2022-08-28T03:55:37.543Z,100.00
2022-08-28T03:56:37.562Z,100.00
2022-08-28T03:57:37.543Z,100.00
2022-08-28T03:58:37.555Z,100.00
2022-08-28T03:59:37.549Z,100.00
2022-08-28T04:00:37.566Z,100.00
2022-08-28T04:01:37.575Z,100.00
2022-08-28T04:02:37.549Z,100.00
2022-08-28T04:03:37.624Z,100.00
2022-08-28T04:04:37.557Z,100.00
2022-08-28T04:05:37.567Z,100.00
2022-08-28T04:06:37.555Z,100.00
2022-08-28T04:07:37.565Z,100.00
2022-08-28T04:08:37.556Z,100.00
2022-08-28T04:09:37.564Z,100.00
2022-08-28T04:10:37.580Z,100.00
2022-08-28T04:11:37.560Z,100.00
2022-08-28T04:12:37.539Z,100.00
2022-08-28T04:13:37.567Z,100.00
2022-08-28T04:14:37.606Z,100.00
2022-08-28T04:15:37.588Z,100.00
2022-08-28T04:16:37.655Z,100.00
2022-08-28T04:17:37.569Z,100.00
2022-08-28T04:18:37.573Z,100.00
2022-08-28T04:19:37.596Z,100.00
2022-08-28T04:20:37.571Z,100.00
2022-08-28T04:21:37.622Z,100.00
2022-08-28T04:22:37.599Z,100.00
2022-08-28T04:23:37.641Z,100.00
2022-08-28T04:24:37.658Z,100.00
2022-08-28T04:25:37.692Z,100.00
2022-08-28T04:26:37.674Z,100.00
2022-08-28T04:27:37.680Z,100.00
2022-08-28T04:28:37.741Z,100.00
2022-08-28T04:29:37.702Z,100.00
2022-08-28T04:30:37.729Z,100.00
2022-08-28T04:31:37.792Z,100.00
2022-08-28T04:32:37.742Z,100.00
2022-08-28T04:33:37.770Z,100.00
2022-08-28T04:34:37.769Z,100.00
2022-08-28T04:35:37.785Z,100.00
2022-08-28T04:36:37.790Z,100.00
2022-08-28T04:37:37.795Z,100.00
2022-08-28T04:38:42.975Z,100.00
2022-08-28T04:39:37.814Z,100.00
2022-08-28T04:40:37.871Z,100.00
2022-08-28T04:41:37.806Z,100.00
2022-08-28T04:42:37.805Z,100.00
2022-08-28T04:43:37.813Z,100.00
2022-08-28T04:44:37.830Z,100.00
2022-08-28T04:45:37.854Z,100.00
2022-08-28T04:46:37.827Z,100.00
2022-08-28T04:47:37.824Z,100.00
2022-08-28T04:48:37.835Z,100.00
2022-08-28T04:49:37.818Z,100.00
2022-08-28T04:50:37.836Z,100.00
2022-08-28T04:51:41.896Z,100.00
2022-08-28T04:52:37.817Z,100.00
2022-08-28T04:53:37.842Z,100.00
2022-08-28T04:54:37.807Z,100.00
2022-08-28T04:55:54.700Z,100.00
2022-08-28T04:56:37.814Z,100.00
2022-08-28T04:57:37.843Z,100.00
2022-08-28T04:58:37.820Z,100.00
2022-08-28T04:59:37.857Z,100.00
2022-08-28T05:00:37.969Z,100.00
2022-08-28T05:01:37.820Z,100.00
2022-08-28T05:02:37.909Z,100.00
2022-08-28T05:03:37.879Z,100.00
2022-08-28T05:04:37.857Z,100.00
2022-08-28T05:05:37.862Z,100.00
2022-08-28T05:06:37.858Z,100.00
2022-08-28T05:07:37.869Z,100.00
2022-08-28T05:08:37.829Z,100.00
2022-08-28T05:09:37.828Z,100.00
2022-08-28T05:10:37.868Z,100.00
2022-08-28T05:11:37.857Z,100.00
2022-08-28T05:12:37.873Z,100.00
2022-08-28T05:13:37.846Z,100.00
2022-08-28T05:14:37.865Z,100.00
2022-08-28T05:15:37.869Z,100.00
2022-08-28T05:16:37.877Z,100.00
2022-08-28T05:17:37.855Z,100.00
2022-08-28T05:18:37.834Z,100.00
2022-08-28T05:19:37.879Z,100.00
2022-08-28T05:20:37.887Z,100.00
2022-08-28T05:21:37.876Z,100.00
2022-08-28T05:22:37.864Z,100.00
2022-08-28T05:23:37.883Z,100.00
2022-08-28T05:24:37.852Z,100.00
2022-08-28T05:25:37.886Z,100.00
2022-08-28T05:26:38.953Z,100.00
2022-08-28T05:27:37.880Z,100.00
2022-08-28T05:28:37.908Z,100.00
2022-08-28T05:29:37.863Z,100.00
2022-08-28T05:30:37.881Z,100.00
2022-08-28T05:31:37.918Z,100.00
2022-08-28T05:32:37.862Z,100.00
2022-08-28T05:33:37.877Z,100.00
2022-08-28T05:34:37.874Z,100.00
2022-08-28T05:35:37.897Z,100.00
2022-08-28T05:36:37.869Z,100.00
2022-08-28T05:37:37.880Z,100.00
2022-08-28T05:38:37.884Z,100.00
2022-08-28T05:39:37.909Z,100.00
2022-08-28T05:40:37.899Z,100.00
2022-08-28T05:41:37.869Z,100.00
2022-08-28T05:42:39.125Z,100.00
2022-08-28T05:43:37.891Z,100.00
2022-08-28T05:44:37.904Z,100.00
2022-08-28T05:45:37.970Z,100.00
2022-08-28T05:46:37.914Z,100.00
2022-08-28T05:47:37.897Z,100.00
2022-08-28T05:48:39.538Z,100.00
2022-08-28T05:49:37.896Z,100.00
2022-08-28T05:50:37.919Z,100.00
2022-08-28T05:51:37.900Z,100.00
2022-08-28T05:52:37.903Z,100.00
2022-08-28T05:53:37.892Z,100.00
2022-08-28T05:54:37.907Z,100.00
2022-08-28T05:55:37.923Z,100.00
2022-08-28T05:56:37.929Z,100.00
2022-08-28T05:57:37.912Z,100.00
2022-08-28T05:58:37.911Z,100.00
2022-08-28T05:59:37.924Z,100.00
2022-08-28T06:00:37.936Z,100.00
2022-08-28T06:01:37.996Z,100.00
2022-08-28T06:02:37.965Z,100.00
2022-08-28T06:03:38.035Z,100.00
2022-08-28T06:04:38.056Z,100.00
2022-08-28T06:05:38.001Z,100.00
2022-08-28T06:06:38.002Z,100.00
2022-08-28T06:07:38.007Z,100.00
2022-08-28T06:08:38.041Z,100.00
2022-08-28T06:09:38.048Z,100.00
2022-08-28T06:10:38.037Z,100.00
2022-08-28T06:11:38.050Z,100.00
2022-08-28T06:12:38.052Z,100.00
2022-08-28T06:13:38.028Z,100.00
2022-08-28T06:14:38.006Z,100.00
2022-08-28T06:15:38.052Z,100.00
2022-08-28T06:16:38.162Z,100.00
2022-08-28T06:17:38.045Z,100.00
2022-08-28T06:18:38.066Z,100.00
2022-08-28T06:19:41.275Z,100.00
2022-08-28T06:20:38.045Z,100.00
2022-08-28T06:21:38.023Z,100.00
2022-08-28T06:22:38.028Z,100.00
2022-08-28T06:23:38.044Z,100.00
2022-08-28T06:24:38.042Z,100.00
2022-08-28T06:25:38.069Z,100.00
2022-08-28T06:26:38.057Z,100.00
2022-08-28T06:27:38.041Z,100.00
2022-08-28T06:28:38.044Z,100.00
2022-08-28T06:29:38.062Z,100.00
2022-08-28T06:30:40.112Z,100.00
2022-08-28T06:31:38.173Z,100.00
2022-08-28T06:32:38.056Z,100.00
2022-08-28T06:33:38.042Z,100.00
2022-08-28T06:34:38.047Z,100.00
2022-08-28T06:35:38.101Z,100.00
2022-08-28T06:36:38.048Z,100.00
2022-08-28T06:37:38.045Z,100.00
2022-08-28T06:38:38.059Z,100.00
2022-08-28T06:39:38.070Z,100.00
2022-08-28T06:40:38.117Z,100.00
2022-08-28T06:41:38.065Z,100.00
2022-08-28T06:42:38.056Z,100.00
2022-08-28T06:43:38.054Z,100.00
2022-08-28T06:44:38.082Z,100.00
2022-08-28T06:45:38.106Z,100.00
2022-08-28T06:46:38.066Z,100.00
2022-08-28T06:47:38.059Z,100.00
2022-08-28T06:48:38.056Z,100.00
2022-08-28T06:49:38.081Z,100.00
2022-08-28T06:50:38.095Z,100.00
2022-08-28T06:51:38.080Z,100.00
2022-08-28T06:52:38.091Z,100.00
2022-08-28T06:53:38.087Z,100.00
2022-08-28T06:54:38.107Z,100.00
2022-08-28T06:55:38.097Z,100.00
2022-08-28T06:56:38.081Z,100.00
2022-08-28T06:57:38.082Z,100.00
2022-08-28T06:58:38.079Z,100.00
2022-08-28T06:59:38.074Z,100.00
2022-08-28T07:00:38.107Z,100.00
2022-08-28T07:01:38.123Z,100.00
2022-08-28T07:02:38.117Z,100.00
2022-08-28T07:03:38.066Z,100.00
2022-08-28T07:04:38.096Z,100.00
2022-08-28T07:05:38.115Z,100.00
2022-08-28T07:06:38.094Z,100.00
2022-08-28T07:07:38.091Z,100.00
2022-08-28T07:08:38.101Z,100.00
2022-08-28T07:09:38.155Z,100.00
2022-08-28T07:10:38.098Z,100.00
2022-08-28T07:11:38.107Z,100.00
2022-08-28T07:12:38.101Z,100.00
2022-08-28T07:13:38.114Z,100.00
2022-08-28T07:14:38.106Z,100.00
2022-08-28T07:15:38.191Z,100.00
2022-08-28T07:16:38.318Z,100.00
2022-08-28T07:17:38.118Z,100.00
2022-08-28T07:18:38.133Z,100.00
2022-08-28T07:19:38.110Z,100.00
2022-08-28T07:20:38.115Z,100.00
2022-08-28T07:21:38.317Z,100.00
2022-08-28T07:22:38.118Z,100.00
2022-08-28T07:23:38.111Z,100.00
2022-08-28T07:24:38.090Z,100.00
2022-08-28T07:25:38.139Z,100.00
2022-08-28T07:26:38.129Z,100.00
2022-08-28T07:27:38.121Z,100.00
2022-08-28T07:28:38.124Z,100.00
2022-08-28T07:29:38.125Z,100.00
2022-08-28T07:30:38.139Z,100.00
2022-08-28T07:31:38.212Z,100.00
2022-08-28T07:32:38.134Z,100.00
2022-08-28T07:33:38.144Z,100.00
2022-08-28T07:34:38.126Z,100.00
2022-08-28T07:35:38.126Z,100.00
2022-08-28T07:36:38.149Z,100.00
2022-08-28T07:37:40.641Z,100.00
2022-08-28T07:38:38.157Z,100.00
2022-08-28T07:39:38.144Z,100.00
2022-08-28T07:40:38.186Z,100.00
2022-08-28T07:41:38.145Z,100.00
2022-08-28T07:42:38.169Z,100.00
2022-08-28T07:44:08.074Z,100.00
2022-08-28T07:45:08.086Z,100.00
2022-08-28T07:46:08.173Z,100.00
2022-08-28T07:47:08.704Z,100.00
2022-08-28T07:48:11.350Z,100.00
2022-08-28T07:49:08.092Z,100.00
2022-08-28T07:50:08.104Z,100.00
2022-08-28T07:51:08.088Z,100.00
2022-08-28T07:52:08.097Z,100.00
2022-08-28T07:53:08.113Z,100.00
2022-08-28T07:54:10.166Z,100.00
2022-08-28T07:55:08.079Z,100.00
2022-08-28T07:56:08.113Z,100.00
2022-08-28T07:57:08.100Z,100.00
2022-08-28T07:58:08.111Z,100.00
2022-08-28T07:59:08.095Z,100.00
2022-08-28T08:00:08.098Z,100.00
2022-08-28T08:01:08.184Z,100.00
2022-08-28T08:02:08.101Z,100.00
2022-08-28T08:03:08.159Z,100.00
2022-08-28T08:04:08.100Z,100.00
2022-08-28T08:05:08.098Z,100.00
2022-08-28T08:06:08.118Z,100.00
2022-08-28T08:07:08.126Z,100.00
2022-08-28T08:08:08.103Z,100.00
2022-08-28T08:09:08.105Z,100.00
2022-08-28T08:10:08.102Z,100.00
2022-08-28T08:11:08.137Z,100.00
2022-08-28T08:12:08.129Z,100.00
2022-08-28T08:13:08.134Z,100.00
2022-08-28T08:14:08.133Z,100.00
2022-08-28T08:15:08.127Z,100.00
2022-08-28T08:16:08.189Z,100.00
2022-08-28T08:17:08.134Z,100.00
2022-08-28T08:18:08.188Z,100.00
2022-08-28T08:19:08.127Z,100.00
2022-08-28T08:20:08.140Z,100.00
2022-08-28T08:21:08.143Z,100.00
2022-08-28T08:22:08.263Z,100.00
2022-08-28T08:23:08.246Z,100.00
2022-08-28T08:24:08.288Z,100.00
2022-08-28T08:25:08.297Z,100.00
2022-08-28T08:26:08.332Z,100.00
2022-08-28T08:27:08.331Z,100.00
2022-08-28T08:28:08.352Z,100.00
2022-08-28T08:29:08.372Z,100.00
2022-08-28T08:30:08.358Z,100.00
2022-08-28T08:31:08.430Z,100.00
2022-08-28T08:32:08.375Z,100.00
2022-08-28T08:33:08.456Z,100.00
2022-08-28T08:34:08.398Z,100.00
2022-08-28T08:35:08.419Z,92.69
2022-08-28T08:36:08.434Z,94.56
2022-08-28T08:37:08.479Z,91.65
2022-08-28T08:38:08.486Z,92.77
2022-08-28T08:39:09.722Z,90.76
2022-08-28T08:40:10.694Z,86.20
2022-08-28T08:41:08.534Z,89.74
2022-08-28T08:42:08.516Z,85.36
2022-08-28T08:43:08.516Z,86.79
2022-08-28T08:44:08.534Z,89.15
2022-08-28T08:45:08.549Z,87.20
2022-08-28T08:46:08.627Z,83.20
2022-08-28T08:47:13.252Z,83.54
2022-08-28T08:48:08.623Z,81.02
2022-08-28T08:49:08.567Z,71.64
2022-08-28T08:50:08.596Z,71.21
2022-08-28T08:51:08.575Z,73.77
2022-08-28T08:52:08.621Z,79.77
2022-08-28T08:53:08.570Z,75.79
2022-08-28T08:54:08.578Z,77.28
2022-08-28T08:55:08.606Z,77.00
2022-08-28T08:56:08.607Z,82.67
2022-08-28T08:57:08.605Z,84.66
2022-08-28T08:58:08.633Z,84.47
2022-08-28T08:59:08.599Z,78.80
2022-08-28T09:00:11.216Z,77.96
2022-08-28T09:01:08.629Z,76.34
2022-08-28T09:02:08.592Z,69.01
2022-08-28T09:03:08.636Z,73.24
2022-08-28T09:04:08.609Z,71.66
2022-08-28T09:05:08.621Z,74.80
2022-08-28T09:06:08.604Z,76.52
2022-08-28T09:07:08.590Z,77.83
2022-08-28T09:08:08.672Z,79.08
2022-08-28T09:09:08.622Z,83.95
2022-08-28T09:10:08.635Z,86.81
2022-08-28T09:11:08.594Z,87.42
2022-08-28T09:12:08.626Z,90.36
2022-08-28T09:13:08.635Z,89.52
2022-08-28T09:14:08.606Z,90.86
2022-08-28T09:15:08.620Z,90.18
2022-08-28T09:16:08.686Z,84.13
2022-08-28T09:17:08.623Z,90.05
2022-08-28T09:18:08.600Z,82.56
2022-08-28T09:19:08.624Z,82.29
2022-08-28T09:20:08.651Z,82.57
2022-08-28T09:21:08.630Z,70.33
2022-08-28T09:22:08.630Z,73.29
2022-08-28T09:23:13.506Z,75.86
2022-08-28T09:24:11.044Z,78.74
2022-08-28T09:25:08.630Z,75.75
2022-08-28T09:26:08.624Z,68.16
2022-08-28T09:27:13.759Z,73.85
2022-08-28T09:28:08.708Z,69.49
2022-08-28T09:29:08.646Z,67.92
2022-08-28T09:30:08.671Z,65.95
2022-08-28T09:31:08.666Z,61.52
2022-08-28T09:32:08.650Z,61.91
2022-08-28T09:33:08.679Z,60.81
2022-08-28T09:34:08.627Z,58.49
2022-08-28T09:35:08.681Z,59.11
2022-08-28T09:36:08.633Z,66.19
2022-08-28T09:37:08.656Z,69.23
2022-08-28T09:38:08.706Z,66.56
2022-08-28T09:39:08.663Z,66.56
2022-08-28T09:40:08.704Z,65.22
2022-08-28T09:41:08.667Z,62.73
2022-08-28T09:42:08.651Z,70.78
2022-08-28T09:43:08.649Z,71.54
2022-08-28T09:44:08.672Z,71.64
2022-08-28T09:45:09.576Z,65.21
2022-08-28T09:46:08.692Z,65.90
2022-08-28T09:47:08.655Z,64.90
2022-08-28T09:48:08.683Z,63.81
2022-08-28T09:49:08.677Z,60.29
2022-08-28T09:50:08.706Z,66.68
2022-08-28T09:51:08.661Z,64.42
2022-08-28T09:52:08.662Z,62.28
2022-08-28T09:53:08.672Z,61.68
2022-08-28T09:54:08.668Z,55.47
2022-08-28T09:55:08.675Z,60.16
2022-08-28T09:56:08.707Z,61.11
2022-08-28T09:57:08.704Z,57.11
2022-08-28T09:58:08.789Z,59.74
2022-08-28T09:59:08.746Z,61.91
2022-08-28T10:00:08.789Z,59.43
2022-08-28T10:01:08.948Z,64.26
2022-08-28T10:02:08.863Z,63.68
2022-08-28T10:03:08.792Z,61.44
2022-08-28T10:04:08.821Z,62.66
2022-08-28T10:05:08.822Z,61.86
2022-08-28T10:06:08.808Z,63.90
2022-08-28T10:07:08.818Z,64.95
2022-08-28T10:08:08.911Z,66.22
2022-08-28T10:09:08.869Z,66.08
2022-08-28T10:10:08.893Z,65.97
2022-08-28T10:11:08.886Z,67.53
2022-08-28T10:12:08.892Z,69.07
2022-08-28T10:13:08.897Z,65.85
2022-08-28T10:14:08.911Z,66.14
2022-08-28T10:15:08.945Z,66.36
2022-08-28T10:16:08.991Z,69.15
2022-08-28T10:17:08.956Z,64.24
2022-08-28T10:18:09.018Z,62.62
2022-08-28T10:19:09.005Z,59.77
2022-08-28T10:20:09.012Z,61.69
2022-08-28T10:21:09.016Z,62.66
2022-08-28T10:22:09.026Z,57.32
2022-08-28T10:23:09.024Z,58.87
2022-08-28T10:24:09.035Z,57.97
2022-08-28T10:25:09.066Z,53.82
2022-08-28T10:26:09.095Z,49.04
2022-08-28T10:27:09.073Z,47.92
2022-08-28T10:28:09.171Z,48.31
2022-08-28T10:29:09.123Z,48.65
2022-08-28T10:30:12.994Z,48.83
2022-08-28T10:31:09.192Z,46.94
2022-08-28T10:32:09.137Z,48.58
2022-08-28T10:33:09.137Z,49.53
2022-08-28T10:34:09.141Z,49.73
2022-08-28T10:35:09.126Z,47.86
2022-08-28T10:36:09.129Z,47.84
2022-08-28T10:37:09.124Z,47.32
2022-08-28T10:38:09.131Z,47.79
2022-08-28T10:39:09.115Z,47.27
2022-08-28T10:40:09.222Z,44.89
2022-08-28T10:41:09.142Z,45.37
2022-08-28T10:42:09.150Z,44.92
2022-08-28T10:43:09.149Z,44.31
2022-08-28T10:44:09.150Z,40.75
2022-08-28T10:45:09.147Z,41.24
2022-08-28T10:46:09.203Z,41.50
2022-08-28T10:47:09.160Z,41.25
2022-08-28T10:48:09.226Z,42.82
2022-08-28T10:49:09.135Z,42.67
2022-08-28T10:50:09.163Z,43.48
2022-08-28T10:51:09.144Z,43.12
2022-08-28T10:52:09.141Z,42.71
2022-08-28T10:53:09.165Z,39.91
2022-08-28T10:54:09.155Z,41.29
2022-08-28T10:55:09.161Z,41.32
2022-08-28T10:56:09.187Z,41.49
2022-08-28T10:57:09.182Z,41.99
2022-08-28T10:58:24.371Z,42.21
2022-08-28T10:59:09.173Z,39.87
2022-08-28T11:00:09.187Z,39.03
2022-08-28T11:01:09.217Z,40.47
2022-08-28T11:02:09.208Z,40.79
2022-08-28T11:03:22.268Z,41.62
2022-08-28T11:04:09.208Z,41.20
2022-08-28T11:05:09.183Z,41.28
2022-08-28T11:06:09.170Z,42.85
2022-08-28T11:07:09.249Z,42.42
2022-08-28T11:08:09.227Z,43.04
2022-08-28T11:09:09.177Z,43.02
2022-08-28T11:10:09.208Z,42.99
2022-08-28T11:11:09.194Z,44.41
2022-08-28T11:12:09.185Z,45.37
2022-08-28T11:13:09.254Z,46.17
2022-08-28T11:14:09.211Z,47.46
2022-08-28T11:15:09.221Z,48.62
2022-08-28T11:16:09.199Z,52.60
2022-08-28T11:17:09.257Z,49.63
2022-08-28T11:18:09.204Z,47.96
2022-08-28T11:19:09.243Z,46.93
2022-08-28T11:20:09.217Z,45.94
2022-08-28T11:21:09.203Z,46.25
2022-08-28T11:22:09.209Z,47.35
2022-08-28T11:23:09.254Z,46.83
2022-08-28T11:24:09.219Z,45.90
2022-08-28T11:25:09.893Z,45.31
2022-08-28T11:26:09.206Z,42.66
2022-08-28T11:27:09.210Z,43.69
2022-08-28T11:28:09.250Z,43.81
2022-08-28T11:29:09.205Z,41.36
2022-08-28T11:30:09.234Z,40.35
2022-08-28T11:31:09.266Z,40.24
2022-08-28T11:32:09.240Z,38.87
2022-08-28T11:33:09.237Z,39.00
2022-08-28T11:34:09.251Z,37.37
2022-08-28T11:35:09.236Z,37.58
2022-08-28T11:36:09.212Z,37.49
2022-08-28T11:37:09.200Z,39.18
2022-08-28T11:38:09.234Z,36.81
2022-08-28T11:39:09.251Z,37.93
2022-08-28T11:40:09.247Z,37.17
2022-08-28T11:41:09.237Z,36.08
2022-08-28T11:42:09.224Z,35.55
2022-08-28T11:43:09.234Z,36.54
2022-08-28T11:44:09.241Z,35.22
2022-08-28T11:45:09.241Z,36.00
2022-08-28T11:46:09.282Z,37.04
2022-08-28T11:47:09.259Z,37.31
2022-08-28T11:48:09.248Z,37.70
2022-08-28T11:49:09.257Z,37.14
2022-08-28T11:50:09.278Z,36.85
2022-08-28T11:51:09.264Z,38.02
2022-08-28T11:52:09.266Z,37.91
2022-08-28T11:53:09.320Z,38.37
2022-08-28T11:54:09.248Z,38.11
2022-08-28T11:55:09.310Z,39.08
2022-08-28T11:56:09.256Z,38.48
2022-08-28T11:57:09.235Z,39.21
2022-08-28T11:59:09.938Z,39.11
2022-08-28T12:00:09.266Z,40.58
2022-08-28T12:01:09.267Z,40.13
2022-08-28T12:02:09.338Z,41.77
2022-08-28T12:03:09.302Z,41.23
2022-08-28T12:04:09.418Z,41.89
2022-08-28T12:05:09.290Z,40.50
2022-08-28T12:06:09.254Z,39.82
2022-08-28T12:07:09.295Z,38.88
2022-08-28T12:08:09.277Z,38.02
2022-08-28T12:09:09.282Z,36.23
2022-08-28T12:10:09.302Z,36.66
2022-08-28T12:11:09.263Z,37.50
2022-08-28T12:12:09.273Z,37.31
2022-08-28T12:13:09.307Z,37.61
2022-08-28T12:14:09.273Z,37.80
2022-08-28T12:15:09.286Z,37.74
2022-08-28T12:16:09.339Z,37.09
2022-08-28T12:17:09.293Z,38.56
2022-08-28T12:18:09.287Z,37.39
2022-08-28T12:19:09.287Z,35.84
2022-08-28T12:20:09.323Z,36.76
2022-08-28T12:21:09.296Z,36.77
2022-08-28T12:22:09.300Z,35.01
2022-08-28T12:23:09.321Z,37.20
2022-08-28T12:24:10.041Z,35.43
2022-08-28T12:25:09.316Z,34.70
2022-08-28T12:26:09.307Z,34.74
2022-08-28T12:27:09.322Z,34.57
2022-08-28T12:28:12.874Z,34.56
2022-08-28T12:29:09.326Z,34.52
2022-08-28T12:30:09.312Z,35.40
2022-08-28T12:31:09.374Z,36.03
2022-08-28T12:32:09.304Z,36.48
2022-08-28T12:33:09.306Z,37.50
2022-08-28T12:34:09.329Z,37.60
2022-08-28T12:35:09.343Z,38.40
2022-08-28T12:36:09.314Z,38.89
2022-08-28T12:37:09.354Z,39.54
2022-08-28T12:38:09.328Z,39.56
2022-08-28T12:39:09.312Z,38.97
2022-08-28T12:40:09.361Z,38.64
2022-08-28T12:41:09.333Z,38.56
2022-08-28T12:42:09.316Z,38.19
2022-08-28T12:43:09.355Z,38.20
2022-08-28T12:44:09.354Z,38.98
2022-08-28T12:45:09.355Z,37.21
2022-08-28T12:46:19.024Z,37.32
2022-08-28T12:47:09.322Z,36.78
2022-08-28T12:48:09.341Z,36.29
2022-08-28T12:49:09.352Z,33.87
2022-08-28T12:50:09.344Z,33.17
2022-08-28T12:51:09.365Z,34.02
2022-08-28T12:52:09.338Z,33.76
2022-08-28T12:53:09.401Z,33.80
2022-08-28T12:54:09.339Z,33.53
2022-08-28T12:55:09.350Z,34.26
2022-08-28T12:56:09.358Z,34.44
2022-08-28T12:57:09.345Z,34.00
2022-08-28T12:58:09.373Z,34.76
2022-08-28T12:59:09.365Z,34.85